Time;durP1;ratioP1;P1;durP2;ratioP2;P2;SDS_P1;SDS_P2;PMS_P1;PMS_P2;Temp;Humidity;BMP_temperature;BMP_pressure;BME280_temperature;BME280_humidity;BME280_pressure;Samples;Min_cycle;Max_cycle;Signal;HPM_P1;HPM_P2
2023/12/15 00:01:22;;;;;;;88.40;45.83;;;4.70;88.20;;;;;;5028273;28;20404;-75
2023/12/15 00:03:48;;;;;;;92.10;43.43;;;4.70;88.30;;;;;;5027315;28;20050;-74
2023/12/15 00:06:14;;;;;;;96.43;44.70;;;4.70;88.30;;;;;;5027627;28;20523;-75
2023/12/15 00:08:41;;;;;;;99.47;44.50;;;4.70;88.40;;;;;;5027304;28;20471;-74
2023/12/15 00:11:07;;;;;;;106.57;46.07;;;4.80;88.40;;;;;;5021505;28;20441;-74
2023/12/15 00:13:32;;;;;;;95.77;45.40;;;4.80;88.40;;;;;;5007830;28;20112;-73
2023/12/15 00:15:58;;;;;;;110.23;47.47;;;4.80;88.40;;;;;;5007699;28;20093;-74
2023/12/15 00:18:24;;;;;;;101.43;45.97;;;4.90;88.30;;;;;;5021724;28;20480;-74
2023/12/15 00:20:49;;;;;;;102.83;47.87;;;4.90;88.30;;;;;;5027407;28;20119;-74
2023/12/15 00:23:15;;;;;;;99.23;46.77;;;4.90;88.40;;;;;;5028543;28;20132;-74
2023/12/15 00:25:41;;;;;;;103.13;46.20;;;4.90;88.50;;;;;;5009868;28;20116;-74
2023/12/15 00:28:06;;;;;;;102.20;46.87;;;4.90;88.50;;;;;;5006988;28;20194;-74
2023/12/15 00:30:32;;;;;;;104.10;47.77;;;5.00;88.40;;;;;;5015102;28;20121;-74
2023/12/15 00:32:58;;;;;;;102.73;48.47;;;5.00;88.40;;;;;;5026114;28;20053;-74
2023/12/15 00:35:23;;;;;;;110.37;49.83;;;5.00;88.50;;;;;;5026371;28;20455;-74
2023/12/15 00:37:49;;;;;;;107.63;49.90;;;5.00;88.50;;;;;;5013689;28;20064;-75
2023/12/15 00:40:16;;;;;;;110.63;49.47;;;5.00;88.50;;;;;;5026778;28;20056;-74
2023/12/15 00:42:42;;;;;;;111.23;50.00;;;5.00;88.60;;;;;;5022307;28;20416;-74
2023/12/15 00:45:08;;;;;;;112.80;49.37;;;5.00;88.60;;;;;;5027201;28;20045;-74
2023/12/15 00:47:34;;;;;;;110.90;50.60;;;5.00;88.70;;;;;;5027740;28;20515;-74
2023/12/15 00:50:00;;;;;;;107.50;50.40;;;5.00;88.60;;;;;;5027508;28;20041;-74
2023/12/15 00:52:25;;;;;;;126.13;52.23;;;5.00;88.60;;;;;;5025765;28;20236;-74
2023/12/15 00:54:51;;;;;;;120.00;54.00;;;5.10;88.70;;;;;;5024945;28;20516;-74
2023/12/15 00:57:17;;;;;;;146.47;54.23;;;5.10;88.60;;;;;;5027477;28;20399;-74
2023/12/15 00:59:43;;;;;;;128.27;55.50;;;5.10;88.70;;;;;;5018225;28;20050;-74
2023/12/15 01:02:09;;;;;;;139.67;55.10;;;5.10;88.70;;;;;;5012621;28;20049;-74
2023/12/15 01:04:35;;;;;;;142.47;55.50;;;5.10;88.70;;;;;;5023785;28;20060;-74
2023/12/15 01:07:01;;;;;;;133.13;53.93;;;5.10;88.70;;;;;;5025005;28;20049;-74
2023/12/15 01:09:27;;;;;;;137.03;55.83;;;5.10;88.70;;;;;;5026949;28;20144;-74
2023/12/15 01:11:53;;;;;;;138.03;57.90;;;5.20;88.70;;;;;;5021796;28;20052;-74
2023/12/15 01:14:19;;;;;;;135.77;55.10;;;5.20;88.70;;;;;;5025815;28;20057;-75
2023/12/15 01:16:49;;;;;;;145.73;60.33;;;5.20;88.80;;;;;;5025921;28;20057;-74
2023/12/15 01:19:17;;;;;;;166.37;59.00;;;5.20;88.70;;;;;;5013607;28;20069;-74
2023/12/15 01:21:43;;;;;;;143.27;57.77;;;5.30;88.70;;;;;;5026465;28;20049;-74
2023/12/15 01:24:08;;;;;;;144.93;58.33;;;5.30;88.80;;;;;;5026984;28;20519;-74
2023/12/15 01:26:34;;;;;;;162.60;61.53;;;5.30;88.70;;;;;;5026441;28;20181;-74
2023/12/15 01:29:00;;;;;;;161.90;59.03;;;5.30;88.80;;;;;;5022983;28;20101;-74
2023/12/15 01:31:25;;;;;;;154.87;60.43;;;5.30;88.80;;;;;;5006583;28;20475;-74
2023/12/15 01:33:51;;;;;;;161.33;60.23;;;5.30;88.80;;;;;;5023998;28;20049;-75
2023/12/15 01:36:17;;;;;;;150.53;57.97;;;5.30;88.90;;;;;;5025888;28;20497;-75
2023/12/15 01:38:43;;;;;;;159.47;60.50;;;5.30;88.90;;;;;;5025402;28;20049;-74
2023/12/15 01:41:09;;;;;;;152.00;59.53;;;5.30;88.90;;;;;;5022776;28;20108;-74
2023/12/15 01:43:35;;;;;;;162.90;61.67;;;5.40;88.90;;;;;;5021627;28;20374;-74
2023/12/15 01:46:01;;;;;;;157.00;63.23;;;5.50;89.00;;;;;;5024987;28;20045;-74
2023/12/15 01:48:29;;;;;;;160.10;61.80;;;5.50;89.10;;;;;;5026960;28;20061;-74
2023/12/15 01:50:54;;;;;;;149.00;61.57;;;5.50;89.10;;;;;;5025973;28;20122;-74
2023/12/15 01:53:20;;;;;;;165.73;58.97;;;5.50;89.20;;;;;;5022047;28;20560;-74
2023/12/15 01:55:47;;;;;;;151.40;59.17;;;5.60;89.20;;;;;;5005377;28;20065;-74
2023/12/15 01:58:12;;;;;;;159.93;62.20;;;5.60;89.30;;;;;;5005338;28;20088;-74
2023/12/15 02:00:38;;;;;;;190.07;64.13;;;5.60;89.40;;;;;;5022105;28;20045;-74
2023/12/15 02:03:04;;;;;;;192.37;64.00;;;5.60;89.30;;;;;;5024671;28;20509;-74
2023/12/15 02:05:29;;;;;;;170.63;63.33;;;5.60;89.40;;;;;;5026194;28;20052;-74
2023/12/15 02:07:55;;;;;;;192.10;64.03;;;5.70;89.30;;;;;;5024659;28;20045;-74
2023/12/15 02:10:21;;;;;;;173.07;62.87;;;5.70;89.40;;;;;;5024831;28;20045;-74
2023/12/15 02:12:46;;;;;;;163.87;61.10;;;5.70;89.30;;;;;;5005461;28;20148;-74
2023/12/15 02:15:12;;;;;;;183.23;66.03;;;5.70;89.30;;;;;;5004802;28;20393;-74
2023/12/15 02:17:38;;;;;;;196.77;66.93;;;5.70;89.30;;;;;;5011051;28;20115;-74
2023/12/15 02:20:06;;;;;;;173.00;64.93;;;5.70;89.30;;;;;;5024953;28;20390;-74
2023/12/15 02:22:31;;;;;;;176.27;63.57;;;5.70;89.40;;;;;;5025688;28;20064;-75
2023/12/15 02:24:57;;;;;;;185.70;65.87;;;5.70;89.30;;;;;;5025925;28;20507;-74
2023/12/15 02:27:23;;;;;;;193.47;67.00;;;5.70;89.30;;;;;;5025653;28;20416;-75
2023/12/15 02:29:48;;;;;;;195.63;66.03;;;5.70;89.30;;;;;;5019599;28;20608;-74
2023/12/15 02:32:14;;;;;;;206.30;62.97;;;5.60;89.30;;;;;;5023657;28;20366;-74
2023/12/15 02:34:40;;;;;;;218.33;70.40;;;5.60;89.20;;;;;;5005515;28;20204;-74
2023/12/15 02:37:06;;;;;;;222.23;68.40;;;5.60;89.20;;;;;;5004405;28;20133;-74
2023/12/15 02:39:33;;;;;;;201.00;65.57;;;5.60;89.30;;;;;;5006227;28;20050;-74
2023/12/15 02:41:58;;;;;;;206.13;65.13;;;5.60;89.30;;;;;;5012118;28;20103;-75
2023/12/15 02:44:24;;;;;;;207.97;65.13;;;5.60;89.20;;;;;;5005715;28;20050;-75
2023/12/15 02:46:50;;;;;;;198.00;63.70;;;5.60;89.30;;;;;;5004633;28;20057;-74
2023/12/15 02:49:18;;;;;;;169.70;60.87;;;5.60;89.30;;;;;;5006430;28;20129;-75
2023/12/15 02:51:44;;;;;;;156.93;57.70;;;5.60;89.30;;;;;;5005887;28;20493;-74
2023/12/15 02:54:10;;;;;;;162.80;60.50;;;5.60;89.30;;;;;;5004952;28;20045;-74
2023/12/15 02:56:35;;;;;;;197.17;61.00;;;5.50;89.30;;;;;;5011671;28;20053;-74
2023/12/15 02:59:03;;;;;;;186.77;61.23;;;5.50;89.20;;;;;;5024653;28;20068;-74
2023/12/15 03:01:29;;;;;;;214.93;64.07;;;5.50;89.20;;;;;;5025357;28;20145;-74
2023/12/15 03:03:54;;;;;;;181.50;61.17;;;5.50;89.20;;;;;;5022987;28;20548;-74
2023/12/15 03:06:20;;;;;;;201.23;63.37;;;5.40;89.10;;;;;;5025242;28;20493;-74
2023/12/15 03:08:46;;;;;;;219.23;68.20;;;5.30;89.10;;;;;;5025988;28;20077;-74
2023/12/15 03:11:11;;;;;;;168.07;59.67;;;5.30;89.00;;;;;;5023805;28;20107;-74
2023/12/15 03:13:38;;;;;;;195.70;60.97;;;5.30;89.00;;;;;;5024016;28;20429;-74
2023/12/15 03:16:11;;;;;;;232.10;65.67;;;5.20;89.00;;;;;;5027478;28;20041;-74
2023/12/15 03:18:37;;;;;;;190.90;62.10;;;5.10;89.00;;;;;;5018019;28;20053;-74
2023/12/15 03:21:03;;;;;;;257.70;68.33;;;5.00;88.90;;;;;;5028442;28;20045;-74
2023/12/15 03:23:29;;;;;;;414.33;84.47;;;5.00;88.90;;;;;;5029349;28;20061;-74
2023/12/15 03:25:55;;;;;;;174.07;58.97;;;4.90;88.90;;;;;;5025962;28;20456;-74
2023/12/15 03:28:21;;;;;;;180.07;59.00;;;4.80;88.70;;;;;;5029288;28;20037;-74
2023/12/15 03:30:46;;;;;;;164.50;56.80;;;4.70;88.70;;;;;;5010430;28;20124;-74
2023/12/15 03:33:12;;;;;;;174.20;57.87;;;4.70;88.80;;;;;;5019742;28;20048;-74
2023/12/15 03:35:38;;;;;;;172.73;58.43;;;4.70;88.70;;;;;;5028501;28;20065;-74
2023/12/15 03:38:05;;;;;;;169.63;57.97;;;4.60;88.80;;;;;;5027066;28;20045;-74
2023/12/15 03:40:30;;;;;;;151.60;55.63;;;4.50;88.80;;;;;;5027628;28;20049;-74
2023/12/15 03:42:56;;;;;;;142.03;54.40;;;4.50;88.90;;;;;;5021875;28;20064;-74
2023/12/15 03:45:23;;;;;;;153.67;54.83;;;4.50;88.90;;;;;;5028304;28;20049;-74
2023/12/15 03:47:50;;;;;;;142.93;53.93;;;4.50;89.00;;;;;;5028979;28;20498;-74
2023/12/15 03:50:16;;;;;;;145.20;54.93;;;4.50;89.00;;;;;;5027949;28;20045;-74
2023/12/15 03:52:41;;;;;;;153.53;55.43;;;4.50;89.10;;;;;;5028215;28;20049;-74
2023/12/15 03:55:08;;;;;;;145.83;55.33;;;4.60;89.10;;;;;;5027946;28;20041;-74
2023/12/15 03:57:33;;;;;;;153.10;56.10;;;4.60;89.00;;;;;;5028927;28;20080;-75
2023/12/15 03:59:59;;;;;;;157.50;54.03;;;4.60;89.10;;;;;;5028236;28;20176;-74
2023/12/15 04:02:25;;;;;;;171.37;56.40;;;4.60;89.10;;;;;;5026557;28;20046;-74
2023/12/15 04:04:50;;;;;;;148.17;55.40;;;4.50;89.10;;;;;;5027212;28;20057;-74
2023/12/15 04:07:16;;;;;;;191.33;58.97;;;4.50;89.00;;;;;;5026619;28;20136;-74
2023/12/15 04:09:42;;;;;;;177.50;58.73;;;4.50;89.10;;;;;;5027708;28;20073;-74
2023/12/15 04:12:08;;;;;;;164.67;56.97;;;4.50;89.10;;;;;;5020217;28;20048;-74
2023/12/15 04:14:34;;;;;;;152.23;54.27;;;4.50;89.00;;;;;;5027579;28;20045;-74
2023/12/15 04:17:00;;;;;;;154.80;52.10;;;4.50;89.00;;;;;;5026094;28;20488;-74
2023/12/15 04:19:26;;;;;;;138.00;51.27;;;4.40;89.10;;;;;;5028300;28;20048;-74
2023/12/15 04:21:51;;;;;;;153.93;53.97;;;4.40;89.10;;;;;;5027092;28;20049;-74
2023/12/15 04:24:18;;;;;;;135.20;51.83;;;4.40;89.00;;;;;;5023270;28;20092;-74
2023/12/15 04:26:44;;;;;;;141.03;50.10;;;4.40;89.10;;;;;;5005876;28;20073;-74
2023/12/15 04:29:10;;;;;;;121.97;46.63;;;4.40;89.10;;;;;;5011963;28;20525;-74
2023/12/15 04:31:35;;;;;;;129.50;55.00;;;4.40;89.10;;;;;;5027177;28;20444;-74
2023/12/15 04:34:01;;;;;;;119.17;44.80;;;4.40;89.20;;;;;;5010393;28;20389;-74
2023/12/15 04:36:27;;;;;;;98.20;44.47;;;4.50;89.20;;;;;;5007072;28;20401;-74
2023/12/15 04:38:52;;;;;;;110.47;53.07;;;4.50;89.40;;;;;;5007695;28;20405;-74
2023/12/15 04:41:23;;;;;;;92.27;40.17;;;4.60;89.50;;;;;;5011239;28;20076;-74
2023/12/15 04:43:49;;;;;;;95.73;41.20;;;4.70;89.40;;;;;;5008357;28;20475;-74
2023/12/15 04:46:28;;;;;;;98.80;40.30;;;4.70;89.50;;;;;;5005446;28;20046;-74
2023/12/15 04:48:55;;;;;;;92.67;38.73;;;4.70;89.40;;;;;;5011359;28;20604;-74
2023/12/15 04:51:21;;;;;;;87.17;36.37;;;4.70;89.50;;;;;;5027169;28;20080;-75
2023/12/15 04:53:48;;;;;;;90.90;35.87;;;4.70;89.50;;;;;;5026912;28;20088;-74
2023/12/15 04:56:14;;;;;;;99.10;40.53;;;4.70;89.50;;;;;;5025891;28;20091;-74
2023/12/15 04:58:40;;;;;;;91.33;38.17;;;4.70;89.40;;;;;;5027191;28;20128;-73
2023/12/15 05:01:10;;;;;;;104.27;38.20;;;4.60;89.40;;;;;;5027071;28;20057;-74
2023/12/15 05:03:36;;;;;;;99.23;37.90;;;4.60;89.40;;;;;;5026064;28;20044;-74
2023/12/15 05:06:01;;;;;;;91.00;39.10;;;4.50;89.30;;;;;;5040657;28;20049;-75
2023/12/15 05:08:27;;;;;;;102.50;36.53;;;4.50;89.40;;;;;;5026969;28;20053;-75
2023/12/15 05:10:53;;;;;;;112.30;39.10;;;4.50;89.20;;;;;;5022152;28;20046;-74
2023/12/15 05:13:18;;;;;;;101.17;36.00;;;4.50;89.30;;;;;;5026704;28;20056;-74
2023/12/15 05:15:44;;;;;;;87.73;33.77;;;4.40;89.20;;;;;;5024945;28;20052;-74
2023/12/15 05:18:09;;;;;;;105.40;34.43;;;4.40;89.30;;;;;;5024118;28;20140;-74
2023/12/15 05:20:38;;;;;;;99.97;33.13;;;4.40;89.20;;;;;;5025910;28;20077;-74
2023/12/15 05:23:04;;;;;;;91.20;31.77;;;4.40;89.20;;;;;;5024762;28;20046;-74
2023/12/15 05:25:31;;;;;;;114.00;33.77;;;4.40;89.20;;;;;;5011777;28;20382;-74
2023/12/15 05:27:57;;;;;;;95.90;31.60;;;4.30;89.30;;;;;;5006926;28;20405;-74
2023/12/15 05:30:23;;;;;;;130.83;35.40;;;4.30;89.20;;;;;;5017138;28;20053;-74
2023/12/15 05:32:48;;;;;;;114.17;34.70;;;4.30;89.10;;;;;;5021477;28;20056;-74
2023/12/15 05:35:14;;;;;;;113.23;32.10;;;4.20;89.10;;;;;;5023594;28;20413;-74
2023/12/15 05:37:40;;;;;;;124.27;34.23;;;4.10;89.10;;;;;;5025244;28;20160;-74
2023/12/15 05:40:09;;;;;;;102.77;32.53;;;4.00;89.00;;;;;;5025903;28;20197;-73
2023/12/15 05:42:35;;;;;;;118.27;34.70;;;4.00;89.00;;;;;;5018673;28;20041;-74
2023/12/15 05:45:01;;;;;;;123.33;33.07;;;4.00;89.00;;;;;;5029883;28;20144;-74
2023/12/15 05:47:27;;;;;;;102.50;31.83;;;3.90;89.00;;;;;;5026232;28;20195;-74
2023/12/15 05:49:53;;;;;;;88.13;32.53;;;3.90;89.00;;;;;;5025225;28;20049;-74
2023/12/15 05:52:19;;;;;;;98.23;30.73;;;4.00;89.10;;;;;;5026095;28;20128;-74
2023/12/15 05:54:45;;;;;;;84.70;29.17;;;4.00;89.20;;;;;;5025948;28;20125;-74
2023/12/15 05:57:11;;;;;;;98.73;30.37;;;4.10;89.30;;;;;;5025983;28;20575;-74
2023/12/15 05:59:37;;;;;;;101.27;28.83;;;4.10;89.30;;;;;;5018262;28;20050;-74
2023/12/15 06:02:02;;;;;;;105.93;28.27;;;4.10;89.30;;;;;;5005537;28;20054;-74
2023/12/15 06:04:28;;;;;;;112.40;30.23;;;4.10;89.20;;;;;;5023494;28;20088;-74
2023/12/15 06:06:54;;;;;;;101.97;29.20;;;4.00;89.20;;;;;;5025603;28;20076;-74
2023/12/15 06:09:20;;;;;;;92.83;29.40;;;4.00;89.20;;;;;;5026093;28;20113;-74
2023/12/15 06:11:45;;;;;;;92.27;29.70;;;4.00;89.20;;;;;;5024324;28;20049;-74
2023/12/15 06:14:11;;;;;;;87.47;29.40;;;4.00;89.30;;;;;;5025870;28;20053;-74
2023/12/15 06:16:37;;;;;;;94.63;28.73;;;4.10;89.30;;;;;;5024775;28;20056;-74
2023/12/15 06:19:03;;;;;;;97.90;29.43;;;4.10;89.40;;;;;;5018682;28;20419;-74
2023/12/15 06:21:29;;;;;;;83.70;26.90;;;4.10;89.40;;;;;;5024661;28;20084;-74
2023/12/15 06:23:55;;;;;;;98.07;27.20;;;4.20;89.50;;;;;;5025166;28;20057;-74
2023/12/15 06:26:25;;;;;;;85.53;25.83;;;4.20;89.50;;;;;;5025277;28;20046;-74
2023/12/15 06:28:53;;;;;;;82.93;27.30;;;4.30;89.60;;;;;;5022209;28;20231;-74
2023/12/15 06:31:19;;;;;;;91.80;27.97;;;4.30;89.60;;;;;;5028126;28;20075;-74
2023/12/15 06:33:45;;;;;;;84.00;25.90;;;4.30;89.60;;;;;;5029450;28;20045;-74
2023/12/15 06:36:11;;;;;;;85.13;27.27;;;4.30;89.70;;;;;;5024266;28;20049;-74
2023/12/15 06:38:39;;;;;;;113.83;29.33;;;4.30;89.50;;;;;;5034656;28;20136;-73
2023/12/15 06:41:05;;;;;;;91.40;26.37;;;4.20;89.40;;;;;;5018586;28;20096;-74
2023/12/15 06:43:32;;;;;;;80.50;23.70;;;4.10;89.30;;;;;;5016989;28;20056;-74
2023/12/15 06:45:57;;;;;;;86.23;22.17;;;4.10;89.30;;;;;;5014350;28;20111;-74
2023/12/15 06:48:23;;;;;;;83.53;23.27;;;4.10;89.30;;;;;;5016143;28;20663;-74
2023/12/15 06:50:49;;;;;;;86.40;22.50;;;4.10;89.50;;;;;;5039468;28;20162;-74
2023/12/15 06:53:17;;;;;;;83.07;20.57;;;4.20;89.50;;;;;;5038183;28;20091;-74
2023/12/15 06:55:43;;;;;;;79.57;21.60;;;4.20;89.60;;;;;;5040845;28;20049;-74
2023/12/15 06:58:08;;;;;;;79.47;20.73;;;4.30;89.70;;;;;;5042913;28;20400;-73
2023/12/15 07:00:34;;;;;;;73.77;21.80;;;4.30;89.70;;;;;;5038569;28;20083;-74
2023/12/15 07:03:00;;;;;;;89.00;23.43;;;4.40;89.80;;;;;;5039758;28;20049;-72
2023/12/15 07:05:25;;;;;;;79.97;21.87;;;4.40;89.70;;;;;;5028896;28;20131;-74
2023/12/15 07:07:51;;;;;;;91.93;21.90;;;4.40;89.80;;;;;;5017905;28;20144;-74
2023/12/15 07:10:17;;;;;;;77.47;21.97;;;4.40;89.70;;;;;;5012730;28;20045;-74
2023/12/15 07:12:43;;;;;;;79.57;22.60;;;4.40;89.70;;;;;;5021218;28;20057;-74
2023/12/15 07:15:09;;;;;;;78.27;23.17;;;4.40;89.70;;;;;;5009209;28;20057;-74
2023/12/15 07:17:34;;;;;;;80.70;21.63;;;4.40;89.70;;;;;;4998148;28;20045;-74
2023/12/15 07:20:00;;;;;;;91.30;22.53;;;4.40;89.70;;;;;;4996618;28;20054;-74
2023/12/15 07:22:26;;;;;;;82.67;19.60;;;4.40;89.70;;;;;;4996679;28;20045;-74
2023/12/15 07:24:51;;;;;;;87.73;20.13;;;4.40;89.70;;;;;;4995850;28;20508;-74
2023/12/15 07:27:17;;;;;;;79.00;18.70;;;4.40;89.70;;;;;;4994295;28;20434;-75
2023/12/15 07:29:43;;;;;;;78.73;18.40;;;4.40;89.80;;;;;;4999646;28;20046;-73
2023/12/15 07:32:08;;;;;;;84.43;22.80;;;4.50;89.80;;;;;;4994778;28;20049;-74
2023/12/15 07:34:34;;;;;;;78.60;19.87;;;4.50;89.80;;;;;;4992978;28;20401;-74
2023/12/15 07:37:00;;;;;;;82.20;20.17;;;4.50;89.80;;;;;;4995951;28;20151;-74
2023/12/15 07:39:25;;;;;;;91.60;19.37;;;4.50;89.70;;;;;;5013262;28;20049;-74
2023/12/15 07:41:51;;;;;;;80.60;20.13;;;4.50;89.70;;;;;;4997050;28;20046;-74
2023/12/15 07:44:17;;;;;;;75.33;18.73;;;4.50;89.70;;;;;;4995006;28;21859;-74
2023/12/15 07:46:43;;;;;;;113.80;50.60;;;4.50;89.70;;;;;;5016240;28;20096;-73
2023/12/15 07:49:10;;;;;;;82.37;18.40;;;4.40;89.70;;;;;;4995723;28;20137;-75
2023/12/15 07:51:35;;;;;;;73.80;18.13;;;4.50;89.60;;;;;;4995433;28;20057;-75
2023/12/15 07:54:01;;;;;;;67.97;17.70;;;4.50;89.70;;;;;;5027701;28;20050;-74
2023/12/15 07:56:28;;;;;;;74.03;17.80;;;4.50;89.70;;;;;;4994937;28;20609;-74
2023/12/15 07:58:55;;;;;;;76.07;18.53;;;4.60;89.80;;;;;;4997429;28;20045;-74
2023/12/15 08:01:23;;;;;;;77.27;18.73;;;4.70;89.80;;;;;;4996892;28;20169;-74
2023/12/15 08:03:53;;;;;;;84.20;18.60;;;4.70;89.90;;;;;;5012737;28;20505;-74
2023/12/15 08:06:19;;;;;;;78.33;17.80;;;4.70;89.90;;;;;;4998279;28;20065;-74
2023/12/15 08:08:46;;;;;;;63.73;18.17;;;4.80;89.90;;;;;;4993085;28;20080;-74
2023/12/15 08:11:13;;;;;;;77.43;18.00;;;4.90;89.90;;;;;;4998328;28;20484;-74
2023/12/15 08:13:40;;;;;;;67.13;17.43;;;4.90;89.90;;;;;;4996534;28;20519;-74
2023/12/15 08:16:07;;;;;;;62.83;16.23;;;4.90;89.80;;;;;;4997540;28;20046;-74
2023/12/15 08:18:32;;;;;;;75.57;16.87;;;4.90;89.80;;;;;;4993049;28;20050;-74
2023/12/15 08:21:00;;;;;;;72.17;16.77;;;4.90;89.80;;;;;;5002317;28;20058;-74
2023/12/15 08:23:26;;;;;;;67.53;17.07;;;5.00;89.80;;;;;;4998015;28;20394;-75
2023/12/15 08:25:53;;;;;;;75.03;17.53;;;5.00;89.80;;;;;;5005150;28;20064;-74
2023/12/15 08:28:20;;;;;;;75.90;17.30;;;5.00;89.80;;;;;;5011552;28;20052;-74
2023/12/15 08:30:47;;;;;;;66.63;16.87;;;5.00;89.70;;;;;;5000727;28;20416;-74
2023/12/15 08:33:13;;;;;;;73.60;17.37;;;5.00;89.70;;;;;;4988727;28;20077;-74
2023/12/15 08:35:39;;;;;;;57.67;15.90;;;5.00;89.70;;;;;;4994264;28;20116;-74
2023/12/15 08:38:05;;;;;;;67.57;16.47;;;5.00;89.70;;;;;;5000743;28;20266;-74
2023/12/15 08:40:30;;;;;;;71.33;13.83;;;5.00;89.60;;;;;;4992914;28;20084;-74
2023/12/15 08:42:56;;;;;;;75.23;15.57;;;5.00;89.60;;;;;;4994279;28;20049;-74
2023/12/15 08:45:22;;;;;;;74.30;14.10;;;5.00;89.60;;;;;;4993595;28;20096;-74
2023/12/15 08:47:48;;;;;;;52.13;15.47;;;5.00;89.50;;;;;;4992803;28;20441;-74
2023/12/15 08:50:14;;;;;;;65.90;15.53;;;5.10;89.50;;;;;;4997233;28;20108;-74
2023/12/15 08:52:43;;;;;;;58.87;15.03;;;5.10;89.40;;;;;;4995814;28;20115;-74
2023/12/15 08:55:09;;;;;;;64.87;14.23;;;5.10;89.40;;;;;;4992819;28;20045;-74
2023/12/15 08:57:35;;;;;;;68.93;15.17;;;5.20;89.40;;;;;;4997592;28;20064;-74
2023/12/15 09:00:00;;;;;;;60.37;13.73;;;5.20;89.40;;;;;;4997634;28;20863;-75
2023/12/15 09:02:26;;;;;;;64.63;14.60;;;5.30;89.30;;;;;;4995241;28;20083;-75
2023/12/15 09:04:52;;;;;;;59.13;13.40;;;5.30;89.40;;;;;;4994996;28;20517;-74
2023/12/15 09:07:18;;;;;;;57.77;13.57;;;5.30;89.30;;;;;;4998050;28;20061;-75
2023/12/15 09:09:44;;;;;;;57.43;12.90;;;5.30;89.30;;;;;;4993646;28;20080;-73
2023/12/15 09:12:10;;;;;;;71.77;13.73;;;5.30;89.20;;;;;;4996486;28;20045;-74
2023/12/15 09:14:36;;;;;;;60.10;14.03;;;5.40;89.10;;;;;;4993428;28;20717;-75
2023/12/15 09:17:03;;;;;;;57.10;14.60;;;5.40;89.10;;;;;;4995528;28;20498;-74
2023/12/15 09:19:29;;;;;;;56.37;12.60;;;5.50;89.00;;;;;;4993441;28;20154;-74
2023/12/15 09:21:55;;;;;;;65.47;13.67;;;5.50;88.90;;;;;;4993543;28;20045;-74
2023/12/15 09:24:21;;;;;;;58.63;12.83;;;5.50;88.80;;;;;;4995060;28;20050;-75
2023/12/15 09:26:46;;;;;;;52.47;20.90;;;5.50;88.80;;;;;;4992327;28;20058;-74
2023/12/15 09:29:13;;;;;;;50.93;13.73;;;5.50;88.70;;;;;;4991608;28;20068;-74
2023/12/15 09:31:39;;;;;;;54.47;15.07;;;5.50;88.50;;;;;;4993916;28;20066;-74
2023/12/15 09:34:05;;;;;;;60.27;15.70;;;5.50;88.50;;;;;;4988817;28;20070;-75
2023/12/15 09:36:31;;;;;;;423.07;390.60;;;5.50;88.40;;;;;;4992306;28;20064;-74
2023/12/15 09:38:57;;;;;;;106.53;95.70;;;5.50;88.50;;;;;;4989846;28;20054;-73
2023/12/15 09:41:23;;;;;;;96.00;74.07;;;5.60;88.40;;;;;;4990834;28;20045;-74
2023/12/15 09:43:49;;;;;;;123.83;111.50;;;5.70;88.40;;;;;;4991083;28;20057;-74
2023/12/15 09:46:16;;;;;;;112.33;100.27;;;5.70;88.50;;;;;;4988404;28;20060;-74
2023/12/15 09:48:42;;;;;;;97.70;75.43;;;5.80;88.40;;;;;;4988493;28;20145;-74
2023/12/15 09:51:14;;;;;;;87.00;76.03;;;5.80;88.40;;;;;;4989049;28;20281;-74
2023/12/15 09:53:43;;;;;;;76.13;49.10;;;5.90;88.30;;;;;;4993060;28;20152;-74
2023/12/15 09:56:09;;;;;;;62.00;14.93;;;6.00;88.30;;;;;;4981018;28;20066;-74
2023/12/15 09:58:35;;;;;;;56.17;23.27;;;6.10;88.20;;;;;;4989744;28;20053;-74
2023/12/15 10:01:00;;;;;;;56.80;17.00;;;6.10;88.00;;;;;;4999311;28;20057;-74
2023/12/15 10:03:26;;;;;;;56.97;14.70;;;6.20;88.20;;;;;;4992513;28;20050;-74
2023/12/15 10:05:52;;;;;;;55.43;15.63;;;6.20;88.10;;;;;;4991146;28;20054;-73
2023/12/15 10:08:22;;;;;;;53.23;16.03;;;6.30;88.00;;;;;;4999899;28;20152;-74
2023/12/15 10:10:48;;;;;;;61.78;25.85;;;6.30;88.00;;;;;;4993599;28;20201;-74
2023/12/15 10:13:14;;;;;;;135.40;121.93;;;6.40;87.90;;;;;;4993355;28;20082;-74
2023/12/15 10:15:40;;;;;;;65.93;37.50;;;6.40;87.80;;;;;;4974759;28;20057;-74
2023/12/15 10:18:06;;;;;;;68.73;36.17;;;6.40;87.70;;;;;;4989348;28;20053;-74
2023/12/15 10:20:32;;;;;;;69.10;38.93;;;6.40;87.80;;;;;;4990436;28;20505;-74
2023/12/15 10:23:06;;;;;;;60.63;40.07;;;6.40;87.80;;;;;;4986472;28;20038;-74
2023/12/15 10:25:34;;;;;;;69.60;45.73;;;6.50;87.70;;;;;;4991932;28;20061;-74
2023/12/15 10:28:03;;;;;;;76.23;54.23;;;6.50;87.80;;;;;;4993074;28;20184;-75
2023/12/15 10:30:29;;;;;;;69.90;52.83;;;6.50;87.60;;;;;;4993940;28;20089;-74
2023/12/15 10:32:59;;;;;;;67.60;54.30;;;6.50;87.50;;;;;;4997323;28;20133;-74
2023/12/15 10:35:28;;;;;;;84.83;54.20;;;6.60;87.50;;;;;;4993625;28;20801;-74
2023/12/15 10:37:54;;;;;;;71.57;56.73;;;6.60;87.40;;;;;;4999938;28;20057;-74
2023/12/15 10:40:20;;;;;;;73.40;58.17;;;6.70;87.40;;;;;;4995635;28;20073;-75
2023/12/15 10:42:47;;;;;;;77.33;57.83;;;6.70;87.30;;;;;;4993795;28;20169;-73
2023/12/15 10:45:13;;;;;;;73.70;46.83;;;6.70;87.40;;;;;;4993992;28;20042;-74
2023/12/15 10:47:40;;;;;;;75.20;61.30;;;6.70;87.30;;;;;;4990776;28;21050;-74
2023/12/15 10:50:08;;;;;;;74.33;55.47;;;6.80;87.40;;;;;;4998150;28;20077;-74
2023/12/15 10:52:36;;;;;;;84.13;68.97;;;6.80;87.30;;;;;;4991001;28;20061;-74
2023/12/15 10:55:03;;;;;;;78.57;57.97;;;6.90;87.30;;;;;;4998729;28;20049;-74
2023/12/15 10:57:30;;;;;;;80.97;65.90;;;6.90;87.20;;;;;;4993458;28;20050;-74
2023/12/15 10:59:57;;;;;;;76.80;54.83;;;7.00;87.30;;;;;;4994757;28;20054;-74
2023/12/15 11:02:27;;;;;;;75.10;55.73;;;7.00;87.20;;;;;;4992447;28;20491;-74
2023/12/15 11:04:55;;;;;;;73.03;54.45;;;7.10;87.30;;;;;;4992100;28;20406;-74
2023/12/15 11:07:24;;;;;;;61.17;47.07;;;7.20;87.30;;;;;;4993144;28;20062;-74
2023/12/15 11:09:50;;;;;;;73.23;45.27;;;7.30;87.30;;;;;;4993403;28;20626;-74
2023/12/15 11:12:22;;;;;;;67.13;57.17;;;7.50;87.30;;;;;;4993060;28;20077;-74
2023/12/15 11:15:07;;;;;;;73.00;45.23;;;7.50;87.10;;;;;;4989504;28;20442;-74
2023/12/15 11:17:33;;;;;;;67.13;48.90;;;7.60;86.80;;;;;;4992381;28;20237;-75
2023/12/15 11:20:06;;;;;;;71.63;43.70;;;7.80;86.60;;;;;;4990113;28;20535;-74
2023/12/15 11:22:49;;;;;;;60.30;40.80;;;7.80;86.70;;;;;;4997880;28;20061;-75
2023/12/15 11:25:20;;;;;;;67.93;38.33;;;8.00;86.80;;;;;;4993683;28;20480;-75
2023/12/15 11:28:00;;;;;;;57.80;24.38;;;8.10;86.20;;;;;;4995310;28;20061;-75
2023/12/15 11:30:31;;;;;;;50.85;23.95;;;8.10;86.00;;;;;;4994550;28;20054;-75
2023/12/15 11:32:56;;;;;;;53.57;15.13;;;8.10;86.00;;;;;;4998575;28;20053;-75
2023/12/15 11:35:31;;;;;;;44.23;12.20;;;8.00;85.70;;;;;;4997636;28;20493;-75
2023/12/15 11:37:58;;;;;;;56.07;14.80;;;8.00;85.90;;;;;;4998894;28;20204;-75
2023/12/15 11:40:29;;;;;;;55.83;14.43;;;8.10;86.10;;;;;;4993724;28;20563;-75
2023/12/15 11:42:56;;;;;;;54.20;17.52;;;8.00;85.90;;;;;;4994293;28;20549;-75
2023/12/15 11:45:26;;;;;;;60.20;15.60;;;8.10;86.00;;;;;;4998576;28;20428;-75
2023/12/15 11:47:53;;;;;;;54.03;14.80;;;8.10;86.00;;;;;;4999908;28;20093;-75
2023/12/15 11:50:20;;;;;;;57.77;14.90;;;8.10;86.00;;;;;;4994607;28;20065;-75
2023/12/15 11:52:46;;;;;;;52.53;16.93;;;8.20;85.90;;;;;;5000083;28;20045;-75
2023/12/15 11:55:11;;;;;;;49.70;14.23;;;8.30;86.10;;;;;;4991236;28;20069;-74
2023/12/15 11:57:37;;;;;;;59.63;14.90;;;8.30;85.80;;;;;;4994094;28;20073;-75
2023/12/15 12:00:04;;;;;;;55.53;22.47;;;8.40;85.70;;;;;;4991313;28;20044;-75
2023/12/15 12:02:29;;;;;;;45.33;22.07;;;8.50;85.70;;;;;;4991735;28;20085;-75
2023/12/15 12:04:55;;;;;;;50.83;20.17;;;8.60;85.20;;;;;;4990169;28;20067;-75
2023/12/15 12:07:21;;;;;;;44.87;17.77;;;8.60;85.30;;;;;;4997169;28;20532;-75
2023/12/15 12:09:47;;;;;;;45.87;17.53;;;8.70;85.00;;;;;;4997921;28;20077;-75
2023/12/15 12:12:13;;;;;;;46.20;15.50;;;8.70;84.90;;;;;;4994165;28;20093;-75
2023/12/15 12:14:42;;;;;;;47.93;16.13;;;8.60;84.70;;;;;;4994204;28;20304;-75
2023/12/15 12:17:12;;;;;;;41.40;14.07;;;8.60;84.80;;;;;;4990126;28;20729;-75
2023/12/15 12:19:44;;;;;;;50.17;14.93;;;8.50;84.90;;;;;;4991727;28;20144;-76
2023/12/15 12:22:11;;;;;;;49.13;14.40;;;8.40;85.00;;;;;;5018218;28;20050;-75
2023/12/15 12:24:37;;;;;;;48.60;12.57;;;8.30;85.00;;;;;;4993654;28;20443;-75
2023/12/15 12:27:05;;;;;;;42.60;12.53;;;8.30;85.10;;;;;;4987764;28;20556;-75
2023/12/15 12:29:31;;;;;;;48.47;13.53;;;8.30;85.30;;;;;;4993748;28;20069;-75